Time;durP1;ratioP1;P1;durP2;ratioP2;P2;SDS_P1;SDS_P2;PMS_P1;PMS_P2;Temp;Humidity;BMP_temperature;BMP_pressure;BME280_temperature;BME280_humidity;BME280_pressure;Samples;Min_cycle;Max_cycle;Signal;HPM_P1;HPM_P2
2021/12/08 00:00:14;;;;;;;;;65.00;55.50;3.60;74.30;;;;;;5069834;28;8861;-69
2021/12/08 00:02:39;;;;;;;;;68.50;55.50;3.50;74.60;;;;;;5076397;28;8761;-71
2021/12/08 00:05:06;;;;;;;;;66.50;55.50;3.50;74.80;;;;;;5064751;28;8859;-67
2021/12/08 00:07:33;;;;;;;;;65.75;55.75;3.50;74.50;;;;;;5063833;28;8823;-70
2021/12/08 00:13:07;;;;;;;;;64.75;54.75;3.50;74.40;;;;;;5060984;28;8895;-70
2021/12/08 00:15:43;;;;;;;;;64.75;56.00;3.60;74.30;;;;;;5067566;28;8878;-69
2021/12/08 00:18:24;;;;;;;;;66.25;56.00;3.60;73.80;;;;;;5073891;28;8764;-69
2021/12/08 00:20:52;;;;;;;;;62.00;53.75;3.50;74.20;;;;;;5072310;28;8864;-70
2021/12/08 00:23:19;;;;;;;;;61.50;53.50;3.60;73.70;;;;;;5071817;28;8760;-70
2021/12/08 00:25:46;;;;;;;;;64.00;54.75;3.70;73.90;;;;;;5072027;28;8828;-71
2021/12/08 00:28:13;;;;;;;;;60.00;52.00;3.60;73.40;;;;;;5064829;28;8793;-69
2021/12/08 00:30:42;;;;;;;;;54.00;48.00;3.60;73.70;;;;;;5067516;28;8849;-70
2021/12/08 00:33:09;;;;;;;;;62.25;52.75;3.40;73.90;;;;;;5070969;28;8776;-71
2021/12/08 00:35:36;;;;;;;;;60.00;53.00;3.30;74.50;;;;;;5074713;28;8788;-68
2021/12/08 00:38:04;;;;;;;;;58.25;50.25;3.30;74.70;;;;;;5072777;28;8812;-69
2021/12/08 00:40:30;;;;;;;;;63.25;54.50;3.40;74.20;;;;;;5074551;28;8784;-71
2021/12/08 00:42:57;;;;;;;;;72.50;58.00;3.40;73.90;;;;;;5074374;28;8811;-69
2021/12/08 00:45:25;;;;;;;;;61.50;51.50;3.40;74.20;;;;;;5072848;28;9435;-68
2021/12/08 00:47:51;;;;;;;;;64.75;54.00;3.40;73.70;;;;;;5068135;28;8775;-72
2021/12/08 00:50:20;;;;;;;;;55.25;49.25;3.30;74.10;;;;;;5062852;28;8767;-72
2021/12/08 00:52:45;;;;;;;;;62.75;53.75;3.30;74.10;;;;;;5054806;28;9445;-70
2021/12/08 00:55:14;;;;;;;;;46.00;43.50;3.30;74.20;;;;;;5054654;28;8786;-71
2021/12/08 00:57:40;;;;;;;;;44.25;42.00;3.60;74.10;;;;;;5055021;28;8751;-71
2021/12/08 01:00:11;;;;;;;;;59.50;51.25;3.60;72.60;;;;;;5055372;28;8843;-69
2021/12/08 01:02:39;;;;;;;;;61.75;53.00;3.40;73.20;;;;;;5055188;28;8771;-71
2021/12/08 01:05:15;;;;;;;;;61.25;51.75;3.50;73.20;;;;;;5055358;28;8775;-68
2021/12/08 01:07:41;;;;;;;;;53.50;49.00;3.40;73.50;;;;;;5054978;28;8822;-68
2021/12/08 01:10:10;;;;;;;;;59.75;51.00;3.30;74.20;;;;;;5055073;28;9452;-69
2021/12/08 01:12:36;;;;;;;;;59.25;50.00;3.20;75.10;;;;;;5055075;28;8885;-68
2021/12/08 01:15:04;;;;;;;;;56.25;49.00;3.20;74.60;;;;;;5054797;28;8787;-68
2021/12/08 01:17:30;;;;;;;;;59.25;52.50;3.30;74.40;;;;;;5054959;28;8795;-69
2021/12/08 01:19:56;;;;;;;;;56.50;49.25;3.40;73.90;;;;;;5054866;28;9487;-70
2021/12/08 01:22:22;;;;;;;;;60.75;52.00;3.40;73.80;;;;;;5054836;28;8779;-70
2021/12/08 01:24:47;;;;;;;;;65.00;53.50;3.20;75.00;;;;;;5054903;28;8779;-71
2021/12/08 01:27:13;;;;;;;;;41.00;40.50;3.10;75.50;;;;;;5054675;28;8802;-69
2021/12/08 01:29:39;;;;;;;;;65.50;56.00;3.30;75.00;;;;;;5054917;28;8778;-70
2021/12/08 01:32:07;;;;;;;;;61.25;53.25;3.20;74.90;;;;;;5054707;28;8872;-69
2021/12/08 01:34:33;;;;;;;;;60.50;52.75;3.30;74.70;;;;;;5054676;28;8783;-69
2021/12/08 01:36:59;;;;;;;;;54.50;47.50;3.30;74.30;;;;;;5054917;28;8922;-70
2021/12/08 01:39:25;;;;;;;;;52.50;47.50;3.20;75.20;;;;;;5054892;28;8884;-68
2021/12/08 01:41:53;;;;;;;;;62.50;53.75;3.20;74.90;;;;;;5054557;28;8763;-69
2021/12/08 01:47:03;;;;;;;;;48.50;44.75;3.20;75.20;;;;;;5054488;28;8795;-70
2021/12/08 01:49:29;;;;;;;;;57.75;51.00;3.40;74.20;;;;;;5054720;28;8877;-68
2021/12/08 01:51:55;;;;;;;;;58.75;50.00;3.50;73.50;;;;;;5054364;28;8806;-70
2021/12/08 01:54:21;;;;;;;;;62.75;51.00;3.50;73.20;;;;;;5054708;28;9527;-70
2021/12/08 01:56:47;;;;;;;;;57.50;50.00;3.50;73.30;;;;;;5054402;28;9697;-68
2021/12/08 01:59:13;;;;;;;;;58.25;51.25;3.20;74.50;;;;;;5054304;28;8774;-70
2021/12/08 02:01:42;;;;;;;;;54.50;49.50;3.10;74.80;;;;;;5054578;28;8763;-70
2021/12/08 02:04:09;;;;;;;;;59.50;50.25;3.30;74.30;;;;;;5054239;28;8767;-68
2021/12/08 02:06:40;;;;;;;;;58.50;51.50;3.30;74.10;;;;;;5054066;28;8831;-69
2021/12/08 02:09:10;;;;;;;;;61.50;52.50;3.40;73.70;;;;;;5054599;28;8912;-71
2021/12/08 02:11:37;;;;;;;;;54.75;48.25;3.20;74.30;;;;;;5054286;28;8980;-69
2021/12/08 02:14:03;;;;;;;;;58.25;50.50;3.10;74.80;;;;;;5054247;28;8755;-69
2021/12/08 02:16:30;;;;;;;;;50.00;44.25;3.10;75.00;;;;;;5054441;28;8774;-67
2021/12/08 02:18:57;;;;;;;;;55.50;50.00;3.20;74.50;;;;;;5054398;28;9466;-68
2021/12/08 02:21:34;;;;;;;;;67.75;55.75;3.00;75.10;;;;;;5054131;28;8794;-68
2021/12/08 02:24:08;;;;;;;;;60.00;47.50;2.90;76.00;;;;;;5054191;28;8893;-67
2021/12/08 02:26:36;;;;;;;;;58.00;50.50;2.80;76.30;;;;;;5054067;28;8815;-69
2021/12/08 02:29:09;;;;;;;;;54.75;48.75;2.90;75.70;;;;;;5054173;28;8759;-68
2021/12/08 02:31:48;;;;;;;;;60.50;52.00;2.90;75.60;;;;;;5054115;28;8809;-68
2021/12/08 02:48:00;;;;;;;;;61.00;50.50;3.20;74.30;;;;;;5053979;28;8739;-68
2021/12/08 02:50:29;;;;;;;;;58.25;50.25;3.10;74.60;;;;;;5053958;28;8896;-69
2021/12/08 02:52:56;;;;;;;;;52.75;47.75;3.10;74.90;;;;;;5054180;28;9417;-68
2021/12/08 02:55:22;;;;;;;;;56.25;49.75;2.90;75.30;;;;;;5054115;28;9405;-69
2021/12/08 02:57:48;;;;;;;;;48.75;45.00;3.00;74.80;;;;;;5056480;28;8763;-68
2021/12/08 03:00:18;;;;;;;;;53.50;47.50;3.00;74.90;;;;;;5057638;28;8793;-68
2021/12/08 03:02:44;;;;;;;;;58.50;52.00;3.10;74.30;;;;;;5057543;28;8775;-70
2021/12/08 03:05:10;;;;;;;;;47.75;45.25;3.30;73.20;;;;;;5057512;28;8836;-68
2021/12/08 03:07:37;;;;;;;;;48.75;41.50;3.30;73.50;;;;;;5057344;28;8845;-68
2021/12/08 03:10:15;;;;;;;;;46.50;44.25;3.30;73.00;;;;;;5057429;28;8787;-70
2021/12/08 03:12:42;;;;;;;;;56.75;50.25;3.30;73.40;;;;;;5056449;28;8806;-72
2021/12/08 03:15:10;;;;;;;;;52.25;47.00;3.30;73.10;;;;;;5057370;28;8751;-70
2021/12/08 03:17:37;;;;;;;;;48.25;43.25;3.60;71.80;;;;;;5057550;28;8779;-69
2021/12/08 03:20:06;;;;;;;;;52.00;47.50;3.50;71.40;;;;;;5057252;28;8747;-68
2021/12/08 03:22:35;;;;;;;;;49.25;45.75;3.40;72.00;;;;;;5057450;28;8763;-70
2021/12/08 03:25:05;;;;;;;;;51.75;46.75;3.00;73.70;;;;;;5057007;28;8892;-69
2021/12/08 03:27:38;;;;;;;;;55.75;47.25;3.10;73.40;;;;;;5057217;28;8810;-68
2021/12/08 03:30:49;;;;;;;;;52.50;47.75;3.30;72.60;;;;;;5057294;28;8828;-69
2021/12/08 03:32:58;;;;;;;;;46.25;44.25;3.30;72.30;;;;;;5055809;28;8817;-71
2021/12/08 03:35:25;;;;;;;;;47.25;44.25;3.30;72.40;;;;;;5057027;28;8801;-71
2021/12/08 03:37:52;;;;;;;;;42.75;41.25;3.20;73.10;;;;;;5056916;28;8810;-69
2021/12/08 03:40:24;;;;;;;;;48.75;44.25;3.30;72.90;;;;;;5056856;28;8901;-69
2021/12/08 03:42:53;;;;;;;;;49.50;44.75;3.50;71.40;;;;;;5056903;28;8774;-70
2021/12/08 03:45:30;;;;;;;;;49.50;44.75;3.50;71.30;;;;;;5056563;28;8779;-69
2021/12/08 03:48:01;;;;;;;;;39.00;39.00;3.30;72.00;;;;;;5056771;28;8786;-68
2021/12/08 03:50:30;;;;;;;;;43.25;42.00;3.10;73.40;;;;;;5056716;28;8767;-67
2021/12/08 03:52:57;;;;;;;;;45.00;43.00;3.00;73.90;;;;;;5056783;28;8853;-68
2021/12/08 03:55:23;;;;;;;;;54.00;46.00;3.20;73.30;;;;;;5056724;28;8773;-68
2021/12/08 03:57:49;;;;;;;;;51.50;47.00;3.00;73.80;;;;;;5056819;28;9429;-69
2021/12/08 04:00:19;;;;;;;;;40.25;40.25;2.90;74.50;;;;;;5056476;28;8806;-68
2021/12/08 04:02:45;;;;;;;;;50.75;46.75;3.20;73.60;;;;;;5056359;28;8851;-67
2021/12/08 04:05:12;;;;;;;;;43.75;42.75;3.10;73.30;;;;;;5056269;28;8794;-70
2021/12/08 04:07:44;;;;;;;;;40.50;40.50;3.10;73.80;;;;;;5055706;28;8810;-69
2021/12/08 04:10:19;;;;;;;;;42.25;41.50;3.10;73.60;;;;;;5056330;28;8968;-71
2021/12/08 04:12:49;;;;;;;;;40.00;40.00;3.20;73.30;;;;;;5056247;28;8910;-69
2021/12/08 04:15:17;;;;;;;;;42.50;42.00;3.40;72.50;;;;;;5056236;28;8787;-69
2021/12/08 04:17:46;;;;;;;;;45.25;42.25;3.40;72.10;;;;;;5056076;28;8775;-69
2021/12/08 04:20:20;;;;;;;;;39.75;39.75;3.40;71.90;;;;;;5056248;28;8754;-71
2021/12/08 04:22:49;;;;;;;;;43.00;41.50;3.60;71.10;;;;;;5062425;28;8893;-69
2021/12/08 04:25:22;;;;;;;;;48.00;44.50;3.40;71.40;;;;;;5069060;28;8893;-69
2021/12/08 04:27:50;;;;;;;;;47.50;44.75;3.40;71.40;;;;;;5055998;28;8789;-69
2021/12/08 04:30:27;;;;;;;;;49.00;45.00;3.30;71.90;;;;;;5056185;28;8770;-69
2021/12/08 04:32:53;;;;;;;;;50.75;45.75;3.30;72.30;;;;;;5055923;28;8771;-70
2021/12/08 04:35:21;;;;;;;;;45.75;43.50;3.30;72.00;;;;;;5056122;28;8785;-69
2021/12/08 04:37:51;;;;;;;;;45.25;42.75;3.50;71.50;;;;;;5055752;28;8803;-69
2021/12/08 04:40:39;;;;;;;;;42.00;40.00;3.70;70.60;;;;;;5055816;28;8770;-70
2021/12/08 04:43:27;;;;;;;;;55.25;47.75;3.80;70.10;;;;;;5055954;28;8762;-70
2021/12/08 04:46:19;;;;;;;;;48.50;44.75;3.80;69.80;;;;;;5055874;28;9005;-71
2021/12/08 04:49:06;;;;;;;;;57.00;48.75;4.10;69.00;;;;;;5055670;28;8903;-71
2021/12/08 05:02:52;;;;;;;;;54.25;49.50;4.80;65.30;;;;;;5055406;28;8739;-70
2021/12/08 05:05:47;;;;;;;;;51.75;47.75;5.10;65.00;;;;;;5055415;28;8802;-68
2021/12/08 05:08:17;;;;;;;;;51.25;47.25;5.00;64.90;;;;;;5055238;28;8911;-70
2021/12/08 05:10:48;;;;;;;;;42.50;41.50;4.80;65.60;;;;;;5055253;28;8747;-68
2021/12/08 05:13:15;;;;;;;;;45.25;42.00;4.90;64.50;;;;;;5055442;28;8770;-69
2021/12/08 05:15:49;;;;;;;;;40.25;38.75;4.50;66.10;;;;;;5055093;28;8856;-70
2021/12/08 05:18:28;;;;;;;;;35.00;34.50;4.70;65.50;;;;;;5055271;28;8783;-68
2021/12/08 05:21:02;;;;;;;;;44.75;42.50;4.30;66.80;;;;;;5056041;28;8767;-70
2021/12/08 05:23:39;;;;;;;;;54.50;45.50;4.40;66.50;;;;;;5062444;28;8780;-68
2021/12/08 05:26:17;;;;;;;;;43.75;42.25;4.10;67.70;;;;;;5059511;28;8811;-70
2021/12/08 05:28:45;;;;;;;;;57.00;50.25;4.00;68.30;;;;;;5059828;28;8786;-70
2021/12/08 05:31:26;;;;;;;;;64.75;54.25;4.00;68.00;;;;;;5062408;28;8890;-68
2021/12/08 05:33:53;;;;;;;;;61.00;52.00;3.80;68.90;;;;;;5074874;28;8764;-69
2021/12/08 05:36:20;;;;;;;;;60.00;52.00;3.80;69.40;;;;;;5063900;28;8877;-69
2021/12/08 05:38:48;;;;;;;;;65.50;56.00;4.10;68.40;;;;;;5061631;28;8795;-70
2021/12/08 05:41:13;;;;;;;;;72.25;61.25;4.20;67.60;;;;;;5066094;28;8788;-68
2021/12/08 05:43:40;;;;;;;;;78.50;65.25;4.00;68.10;;;;;;5071804;28;9517;-67
2021/12/08 05:46:07;;;;;;;;;77.75;65.00;4.10;68.30;;;;;;5062056;28;8855;-67
2021/12/08 05:48:33;;;;;;;;;89.50;72.00;4.00;68.00;;;;;;5055315;28;8781;-69
2021/12/08 05:51:11;;;;;;;;;85.00;70.00;3.80;69.10;;;;;;5070756;28;8837;-67
2021/12/08 05:53:39;;;;;;;;;90.75;73.00;4.10;68.70;;;;;;5061416;28;8897;-68
2021/12/08 05:56:07;;;;;;;;;87.25;72.00;4.60;66.50;;;;;;5063842;28;8800;-67
2021/12/08 05:58:33;;;;;;;;;84.25;68.50;4.50;66.80;;;;;;5071433;28;8769;-70
2021/12/08 06:01:17;;;;;;;;;105.00;95.25;4.40;66.90;;;;;;5074339;28;8764;-66
2021/12/08 06:03:44;;;;;;;;;99.75;91.00;4.60;66.20;;;;;;5056381;28;9813;-68
2021/12/08 06:06:12;;;;;;;;;200.50;183.25;5.10;64.90;;;;;;5054124;28;8799;-67
2021/12/08 06:08:39;;;;;;;;;215.00;199.75;4.80;65.80;;;;;;5054396;28;8871;-67
2021/12/08 06:11:07;;;;;;;;;283.50;262.50;5.00;65.50;;;;;;5054032;28;8882;-66
2021/12/08 06:13:33;;;;;;;;;325.25;299.50;4.30;67.40;;;;;;5053777;28;8797;-66
2021/12/08 06:15:59;;;;;;;;;346.00;295.00;4.60;67.20;;;;;;5054140;28;8852;-67
2021/12/08 06:18:27;;;;;;;;;310.25;266.50;4.70;66.60;;;;;;5053110;28;8783;-66
2021/12/08 06:20:57;;;;;;;;;293.50;275.25;4.80;66.00;;;;;;5054345;28;8837;-66
2021/12/08 06:23:24;;;;;;;;;98.00;83.75;4.80;66.00;;;;;;5054030;28;8787;-67
2021/12/08 06:25:50;;;;;;;;;99.00;80.25;4.90;65.10;;;;;;5054014;28;8825;-68
2021/12/08 06:28:15;;;;;;;;;96.00;83.00;5.00;64.90;;;;;;5054291;28;8783;-68
2021/12/08 06:30:47;;;;;;;;;251.25;234.75;5.10;65.20;;;;;;5055112;28;8767;-69
2021/12/08 06:33:15;;;;;;;;;283.25;268.25;4.80;65.40;;;;;;5058074;28;8783;-68
2021/12/08 06:35:47;;;;;;;;;251.75;227.50;4.90;66.30;;;;;;5057970;28;8759;-68
2021/12/08 06:38:14;;;;;;;;;288.25;275.75;4.90;66.20;;;;;;5058120;28;8837;-68
2021/12/08 06:40:43;;;;;;;;;399.50;342.50;5.00;65.60;;;;;;5058093;28;8762;-70
2021/12/08 06:43:12;;;;;;;;;415.25;372.50;4.60;66.80;;;;;;5058084;28;8773;-69
2021/12/08 06:45:41;;;;;;;;;382.75;339.50;4.00;69.60;;;;;;5057618;28;8810;-70
2021/12/08 06:48:12;;;;;;;;;411.50;365.25;4.00;70.60;;;;;;5057569;28;8759;-70
2021/12/08 06:50:50;;;;;;;;;400.50;353.25;4.10;71.10;;;;;;5057952;28;8759;-70
2021/12/08 06:53:16;;;;;;;;;415.00;376.75;4.30;69.70;;;;;;5057716;28;8797;-69
2021/12/08 06:55:57;;;;;;;;;323.75;299.50;4.40;69.30;;;;;;5057603;28;8767;-69
2021/12/08 06:58:27;;;;;;;;;354.50;328.00;4.70;67.90;;;;;;5057735;28;8763;-67
2021/12/08 07:06:58;;;;;;;;;364.00;322.00;5.10;66.40;;;;;;5057261;28;8838;-65
2021/12/08 07:09:19;;;;;;;;;352.25;326.50;5.10;65.90;;;;;;5057499;28;8807;-68
2021/12/08 07:11:47;;;;;;;;;393.75;355.75;5.40;64.80;;;;;;5057340;28;8872;-65
2021/12/08 07:14:14;;;;;;;;;449.00;411.50;5.50;64.90;;;;;;5057250;28;8848;-65
2021/12/08 07:16:45;;;;;;;;;472.25;419.75;5.20;65.50;;;;;;5057268;28;8799;-65
2021/12/08 07:19:32;;;;;;;;;365.00;321.75;4.90;66.60;;;;;;5057184;28;8771;-66
2021/12/08 07:22:00;;;;;;;;;379.75;347.00;5.10;65.70;;;;;;5057141;28;8755;-65
2021/12/08 07:24:34;;;;;;;;;353.00;319.25;5.30;64.90;;;;;;5057126;28;8779;-67
2021/12/08 07:27:07;;;;;;;;;305.25;293.25;5.10;65.90;;;;;;5056941;28;8901;-65
2021/12/08 07:29:36;;;;;;;;;302.00;288.00;5.20;65.00;;;;;;5057305;28;8763;-67
2021/12/08 07:32:09;;;;;;;;;283.50;264.75;4.80;66.10;;;;;;5056958;28;9493;-66
2021/12/08 07:34:36;;;;;;;;;261.50;247.50;4.50;68.20;;;;;;5057002;28;8767;-66
2021/12/08 07:37:06;;;;;;;;;247.00;224.00;4.10;69.90;;;;;;5057180;28;9552;-66
2021/12/08 07:39:42;;;;;;;;;301.00;269.50;4.40;69.60;;;;;;5057272;28;8795;-66
2021/12/08 07:42:17;;;;;;;;;193.50;183.25;4.80;68.30;;;;;;5056263;28;9449;-67
2021/12/08 07:44:46;;;;;;;;;201.00;189.50;5.10;66.70;;;;;;5056761;28;8917;-66
2021/12/08 07:47:14;;;;;;;;;163.50;157.25;5.50;65.50;;;;;;5056682;28;8802;-67
2021/12/08 07:49:45;;;;;;;;;142.25;135.50;5.80;64.20;;;;;;5056866;28;9448;-66
2021/12/08 07:52:13;;;;;;;;;145.50;139.00;4.70;67.20;;;;;;5056471;28;8774;-66
2021/12/08 07:54:41;;;;;;;;;151.75;147.00;4.80;67.70;;;;;;5056584;28;8777;-66
2021/12/08 07:57:12;;;;;;;;;179.75;172.50;5.10;66.70;;;;;;5056458;28;8763;-67
2021/12/08 07:59:41;;;;;;;;;190.25;180.25;5.30;65.90;;;;;;5056589;28;8775;-65
2021/12/08 08:02:07;;;;;;;;;244.25;234.25;5.60;64.70;;;;;;5055408;28;8771;-66
2021/12/08 08:04:37;;;;;;;;;258.50;243.25;5.40;66.30;;;;;;5056586;28;9456;-66
2021/12/08 08:07:04;;;;;;;;;239.25;212.25;5.70;65.80;;;;;;5056115;28;8827;-67
2021/12/08 08:09:36;;;;;;;;;229.25;201.75;5.90;64.80;;;;;;5056662;28;8831;-66
2021/12/08 08:12:06;;;;;;;;;191.50;178.50;6.00;64.60;;;;;;5056277;28;8767;-67
2021/12/08 08:14:39;;;;;;;;;164.50;152.00;5.40;66.40;;;;;;5056331;28;8775;-66
2021/12/08 08:17:09;;;;;;;;;158.25;143.25;4.90;68.70;;;;;;5056421;28;8872;-66
2021/12/08 08:19:42;;;;;;;;;158.50;144.00;4.90;68.80;;;;;;5056027;28;8797;-65
2021/12/08 08:22:12;;;;;;;;;125.75;113.50;5.20;66.80;;;;;;5055946;28;8852;-67
2021/12/08 08:24:37;;;;;;;;;136.50;134.50;5.60;65.50;;;;;;5055914;28;9515;-68
2021/12/08 08:27:08;;;;;;;;;159.25;142.25;5.70;64.40;;;;;;5056137;28;8810;-66
2021/12/08 08:29:37;;;;;;;;;167.75;144.75;5.60;64.10;;;;;;5055990;28;8755;-65
2021/12/08 08:32:21;;;;;;;;;142.75;125.75;5.90;63.90;;;;;;5055864;28;8789;-64
2021/12/08 08:34:55;;;;;;;;;157.00;142.50;5.80;63.90;;;;;;5056143;28;8783;-65
2021/12/08 08:37:22;;;;;;;;;153.50;138.25;5.90;62.70;;;;;;5055828;28;8758;-66
2021/12/08 08:39:53;;;;;;;;;174.00;160.50;6.50;62.10;;;;;;5055651;28;8759;-68
2021/12/08 08:42:31;;;;;;;;;171.50;153.75;6.00;63.40;;;;;;5055644;28;8856;-65
2021/12/08 08:45:05;;;;;;;;;153.00;135.00;6.40;62.70;;;;;;5055820;28;8779;-66
2021/12/08 08:47:38;;;;;;;;;128.50;114.00;5.80;64.60;;;;;;5055557;28;8811;-65
2021/12/08 08:50:10;;;;;;;;;119.50;107.50;5.40;65.50;;;;;;5055526;28;8857;-67
2021/12/08 08:52:45;;;;;;;;;122.25;107.75;5.60;64.40;;;;;;5055448;28;8774;-65
2021/12/08 08:55:19;;;;;;;;;102.50;101.75;6.10;63.20;;;;;;5055455;28;8778;-65
2021/12/08 08:57:46;;;;;;;;;141.00;129.50;6.20;63.60;;;;;;5054860;28;8787;-66
2021/12/08 09:00:25;;;;;;;;;131.50;117.50;6.30;62.70;;;;;;5055314;28;8787;-65
2021/12/08 09:02:53;;;;;;;;;95.75;80.00;6.60;62.30;;;;;;5055277;28;8778;-66
2021/12/08 09:05:25;;;;;;;;;103.75;96.25;6.70;60.40;;;;;;5055339;28;8763;-66
2021/12/08 09:07:54;;;;;;;;;107.75;93.00;6.50;60.90;;;;;;5055502;28;8827;-65
2021/12/08 09:10:25;;;;;;;;;86.50;67.50;6.60;61.80;;;;;;5055337;28;9437;-68
2021/12/08 09:12:57;;;;;;;;;87.50;69.50;6.50;61.30;;;;;;5054553;28;8877;-67
2021/12/08 09:15:43;;;;;;;;;84.75;65.50;6.60;60.70;;;;;;5055335;28;8767;-67
2021/12/08 09:18:22;;;;;;;;;88.00;68.00;7.30;59.20;;;;;;5054954;28;8747;-68
2021/12/08 09:21:09;;;;;;;;;91.00;74.00;7.20;59.20;;;;;;5054905;28;8769;-70
2021/12/08 09:23:51;;;;;;;;;79.75;64.50;6.80;60.40;;;;;;5054938;28;8775;-67
2021/12/08 09:26:20;;;;;;;;;72.25;58.25;6.60;60.80;;;;;;5054258;28;8825;-68
2021/12/08 09:28:54;;;;;;;;;71.50;57.00;6.80;59.90;;;;;;5054857;28;8779;-69
2021/12/08 09:31:29;;;;;;;;;64.75;50.75;6.40;60.50;;;;;;5054852;28;8758;-66
2021/12/08 09:34:17;;;;;;;;;76.75;58.50;6.50;60.60;;;;;;5054765;28;8779;-67
2021/12/08 09:36:56;;;;;;;;;72.25;56.50;6.90;60.20;;;;;;5054776;28;8751;-69
2021/12/08 09:39:28;;;;;;;;;64.00;53.25;6.90;59.60;;;;;;5054558;28;9495;-69
2021/12/08 09:41:59;;;;;;;;;71.25;55.00;6.70;60.00;;;;;;5054383;28;8864;-67
2021/12/08 09:44:30;;;;;;;;;67.25;54.75;6.70;60.20;;;;;;5054693;28;8779;-66
2021/12/08 09:46:56;;;;;;;;;73.25;58.00;7.20;59.30;;;;;;5054463;28;9436;-67
2021/12/08 09:49:25;;;;;;;;;73.75;60.50;7.10;59.50;;;;;;5054507;28;8775;-67
2021/12/08 09:51:54;;;;;;;;;81.75;64.25;7.10;59.80;;;;;;5071634;28;8899;-67
2021/12/08 09:54:20;;;;;;;;;81.50;63.00;7.60;59.20;;;;;;5073391;28;8776;-67
2021/12/08 09:56:49;;;;;;;;;82.25;65.00;8.40;57.00;;;;;;5072347;28;8773;-71
2021/12/08 09:59:17;;;;;;;;;68.25;54.00;8.70;55.70;;;;;;5074676;28;8769;-65
2021/12/08 10:01:44;;;;;;;;;58.50;49.00;9.20;53.70;;;;;;5074312;28;8768;-69
2021/12/08 10:04:12;;;;;;;;;54.25;44.75;9.50;52.00;;;;;;5074345;28;8776;-70
2021/12/08 10:06:41;;;;;;;;;45.25;38.50;10.70;50.50;;;;;;5073146;28;8820;-72
2021/12/08 10:09:08;;;;;;;;;43.00;37.67;14.20;43.70;;;;;;5074183;28;8796;-70
2021/12/08 10:11:34;;;;;;;;;28.00;27.00;17.20;36.40;;;;;;5073183;28;8783;-73
2021/12/08 10:14:01;;;;;;;;;23.33;21.33;18.30;33.20;;;;;;5074149;28;8761;-71
2021/12/08 10:16:28;;;;;;;;;38.00;33.00;19.50;31.00;;;;;;5074449;28;8768;-69
2021/12/08 10:18:56;;;;;;;;;38.33;34.33;20.20;31.10;;;;;;5074144;28;8749;-71
2021/12/08 10:21:32;;;;;;;;;42.00;36.67;22.60;28.80;;;;;;5073630;28;8823;-69
2021/12/08 10:23:58;;;;;;;;;39.67;36.33;22.20;27.80;;;;;;5074127;28;8788;-70
2021/12/08 10:26:24;;;;;;;;;32.67;31.67;23.10;28.10;;;;;;5073961;28;8819;-70
2021/12/08 10:28:56;;;;;;;;;24.25;24.25;24.90;25.20;;;;;;5074539;28;8760;-71
2021/12/08 10:31:30;;;;;;;;;31.00;30.00;24.40;24.40;;;;;;5073904;28;11492;-68
2021/12/08 10:36:47;;;;;;;;;34.67;32.67;25.70;24.40;;;;;;5073675;28;11550;-67
2021/12/08 10:39:47;;;;;;;;;34.67;32.67;25.30;24.00;;;;;;5074211;28;11515;-70
2021/12/08 10:42:13;;;;;;;;;38.00;35.00;26.80;23.70;;;;;;5071626;28;8770;-71
2021/12/08 10:44:47;;;;;;;;;28.33;28.33;27.50;22.60;;;;;;5071638;28;11459;-69
2021/12/08 10:47:20;;;;;;;;;29.75;29.75;28.30;21.60;;;;;;5071697;28;11503;-71
2021/12/08 10:55:11;;;;;;;;;35.00;33.00;27.20;21.80;;;;;;5071677;28;11447;-68
2021/12/08 10:57:38;;;;;;;;;33.00;31.67;27.40;21.50;;;;;;5071497;28;11535;-71
2021/12/08 11:00:18;;;;;;;;;35.67;33.33;27.90;21.10;;;;;;5071574;28;8769;-69
2021/12/08 11:02:46;;;;;;;;;34.33;32.33;27.10;21.30;;;;;;5071602;28;11481;-69
2021/12/08 11:05:24;;;;;;;;;49.67;43.00;27.30;21.20;;;;;;5065142;28;11505;-69
2021/12/08 11:07:59;;;;;;;;;50.00;42.67;28.10;20.80;;;;;;5048083;28;8806;-67
2021/12/08 11:10:25;;;;;;;;;46.67;40.33;28.90;20.00;;;;;;5059459;28;8794;-70
2021/12/08 11:12:55;;;;;;;;;48.67;41.67;29.50;19.90;;;;;;5071588;28;8769;-71
2021/12/08 11:15:23;;;;;;;;;53.00;44.67;28.50;20.50;;;;;;5071635;28;8789;-67
2021/12/08 11:18:07;;;;;;;;;51.00;43.33;28.60;20.40;;;;;;5073504;28;8772;-67
2021/12/08 11:20:39;;;;;;;;;47.00;40.33;28.30;21.10;;;;;;5077018;28;8768;-67
2021/12/08 11:23:09;;;;;;;;;51.00;43.00;28.20;20.90;;;;;;5077269;28;8810;-69
2021/12/08 11:25:40;;;;;;;;;43.00;38.67;29.10;20.30;;;;;;5077100;28;8879;-67
2021/12/08 11:28:31;;;;;;;;;45.00;39.33;28.80;20.40;;;;;;5077428;28;8827;-66
2021/12/08 11:31:16;;;;;;;;;43.33;37.33;28.60;20.50;;;;;;5076489;28;8764;-67
2021/12/08 11:33:48;;;;;;;;;43.33;38.33;27.80;20.80;;;;;;5076977;28;8756;-68
2021/12/08 11:36:21;;;;;;;;;44.33;39.33;27.70;21.20;;;;;;5077138;28;8760;-65
2021/12/08 11:38:49;;;;;;;;;50.67;42.33;28.50;20.50;;;;;;5076721;28;8910;-71
2021/12/08 11:41:34;;;;;;;;;45.33;39.33;28.80;19.80;;;;;;5076464;28;8784;-70
2021/12/08 11:44:01;;;;;;;;;49.67;42.33;29.20;20.20;;;;;;5076510;28;8791;-70
2021/12/08 11:46:27;;;;;;;;;50.33;43.67;27.80;21.00;;;;;;5076500;28;8808;-72
2021/12/08 11:49:06;;;;;;;;;45.67;40.33;27.10;21.10;;;;;;5076598;28;8772;-71
2021/12/08 11:51:44;;;;;;;;;41.00;37.67;28.40;20.10;;;;;;5076611;28;8801;-70
2021/12/08 11:54:39;;;;;;;;;46.67;39.00;27.70;20.90;;;;;;5076708;28;8737;-70
2021/12/08 11:57:28;;;;;;;;;48.33;41.67;27.70;20.80;;;;;;5076780;28;8803;-71
2021/12/08 12:00:08;;;;;;;;;54.67;46.33;27.40;21.20;;;;;;5076468;28;8780;-69
2021/12/08 12:03:02;;;;;;;;;55.33;46.67;26.80;21.10;;;;;;5076731;28;8764;-69
2021/12/08 12:05:41;;;;;;;;;55.67;47.33;25.30;22.20;;;;;;5076270;28;8780;-70
2021/12/08 12:08:10;;;;;;;;;57.75;48.50;24.60;22.90;;;;;;5076640;28;8784;-71
2021/12/08 12:10:45;;;;;;;;;58.50;49.50;25.00;22.50;;;;;;5076311;28;8879;-70
2021/12/08 12:13:12;;;;;;;;;57.33;47.67;24.20;23.60;;;;;;5076658;28;8875;-70
2021/12/08 12:15:42;;;;;;;;;54.00;46.33;25.10;22.80;;;;;;5074458;28;8783;-71
2021/12/08 12:18:08;;;;;;;;;56.67;48.33;24.90;22.60;;;;;;5076235;28;9419;-70
2021/12/08 12:20:51;;;;;;;;;55.00;46.00;23.70;23.40;;;;;;5076006;28;8789;-69
2021/12/08 12:23:51;;;;;;;;;55.00;47.00;24.70;22.80;;;;;;5055924;28;8848;-70
2021/12/08 12:26:40;;;;;;;;;52.33;44.00;25.00;22.80;;;;;;5055934;28;8821;-71
2021/12/08 12:29:27;;;;;;;;;62.25;51.50;24.60;23.10;;;;;;5055572;28;8786;-70
2021/12/08 12:32:02;;;;;;;;;57.25;48.25;23.70;24.10;;;;;;5056444;28;8866;-70
2021/12/08 12:34:37;;;;;;;;;55.33;47.00;22.20;24.90;;;;;;5055806;28;8794;-70
2021/12/08 12:37:34;;;;;;;;;59.00;49.25;22.40;24.90;;;;;;5055864;28;8759;-70
2021/12/08 12:40:01;;;;;;;;;58.25;47.25;21.80;25.50;;;;;;5053819;28;8856;-70
2021/12/08 12:42:42;;;;;;;;;57.25;48.25;21.80;25.50;;;;;;5055696;28;8755;-68
2021/12/08 12:45:11;;;;;;;;;58.75;49.00;20.70;25.80;;;;;;5055682;28;8802;-68
2021/12/08 12:47:37;;;;;;;;;52.67;44.33;20.00;26.20;;;;;;5055453;28;8868;-70
2021/12/08 12:50:11;;;;;;;;;62.75;52.50;18.90;27.40;;;;;;5055777;28;8758;-69
2021/12/08 12:52:39;;;;;;;;;56.00;47.25;18.30;28.70;;;;;;5055511;28;8767;-69
2021/12/08 12:55:12;;;;;;;;;48.33;42.33;17.70;29.40;;;;;;5055484;28;9228;-69
2021/12/08 12:57:59;;;;;;;;;53.00;45.00;17.30;29.50;;;;;;5070978;28;8871;-68
2021/12/08 13:00:28;;;;;;;;;53.25;45.25;17.30;29.60;;;;;;5069506;28;8763;-67
2021/12/08 13:02:54;;;;;;;;;54.25;46.25;17.30;29.10;;;;;;5069027;28;9447;-68
2021/12/08 13:05:19;;;;;;;;;52.75;44.50;17.00;29.70;;;;;;5067315;28;8788;-69
2021/12/08 13:07:59;;;;;;;;;55.25;45.25;17.20;29.30;;;;;;5012767;28;8867;-68
2021/12/08 13:10:38;;;;;;;;;59.00;49.25;16.30;31.10;;;;;;5067235;28;8764;-68
2021/12/08 13:13:16;;;;;;;;;55.25;46.00;16.20;31.30;;;;;;5073854;28;8795;-69
2021/12/08 13:15:44;;;;;;;;;62.75;52.00;16.20;30.50;;;;;;5071541;28;8785;-68
2021/12/08 13:18:15;;;;;;;;;60.00;49.50;16.40;30.50;;;;;;5070022;28;8973;-68
2021/12/08 13:20:42;;;;;;;;;54.25;46.00;15.90;31.20;;;;;;5068831;28;8792;-68
2021/12/08 13:23:10;;;;;;;;;61.00;51.00;15.40;32.70;;;;;;5064921;28;8795;-68
2021/12/08 13:28:34;;;;;;;;;61.25;51.75;16.10;31.00;;;;;;5055840;28;8895;-69
2021/12/08 13:31:19;;;;;;;;;53.50;45.50;16.10;30.90;;;;;;5071544;28;8883;-69
2021/12/08 13:33:50;;;;;;;;;59.00;49.75;16.00;31.20;;;;;;5072287;28;8803;-68
2021/12/08 13:36:22;;;;;;;;;71.50;59.25;14.50;33.50;;;;;;5019802;28;8778;-68
2021/12/08 13:38:57;;;;;;;;;55.00;45.75;14.40;33.30;;;;;;5074510;28;8919;-69
2021/12/08 13:41:28;;;;;;;;;67.25;56.00;13.80;34.30;;;;;;5073766;28;8764;-68
2021/12/08 13:43:55;;;;;;;;;69.25;56.25;13.10;35.80;;;;;;5069511;28;8764;-69
2021/12/08 13:46:39;;;;;;;;;71.25;59.25;12.70;37.40;;;;;;5066811;28;8924;-67
2021/12/08 13:49:26;;;;;;;;;54.25;46.25;11.70;39.40;;;;;;5073491;28;9431;-69